sensor_id;sensor_type;location;lat;lon;timestamp;pressure;altitude;pressure_sealevel;temperature;humidity
76124;BME280;65173;48.066;20.976;2023-04-08T00:00:57;100778.69;;;2.28;100.00
76124;BME280;65173;48.066;20.976;2023-04-08T00:04:00;100783.03;;;2.39;100.00
76124;BME280;65173;48.066;20.976;2023-04-08T00:07:03;100776.88;;;2.29;100.00
76124;BME280;65173;48.066;20.976;2023-04-08T00:10:08;100781.56;;;2.27;100.00
76124;BME280;65173;48.066;20.976;2023-04-08T00:13:11;100777.66;;;2.29;100.00
76124;BME280;65173;48.066;20.976;2023-04-08T00:16:14;100780.06;;;2.31;100.00
76124;BME280;65173;48.066;20.976;2023-04-08T00:19:18;100784.81;;;2.34;100.00
76124;BME280;65173;48.066;20.976;2023-04-08T00:22:22;100786.91;;;2.32;100.00
76124;BME280;65173;48.066;20.976;2023-04-08T00:25:24;100780.59;;;2.33;100.00
76124;BME280;65173;48.066;20.976;2023-04-08T00:28:27;100785.34;;;2.36;100.00
76124;BME280;65173;48.066;20.976;2023-04-08T00:31:30;100786.69;;;2.38;100.00
76124;BME280;65173;48.066;20.976;2023-04-08T00:34:33;100780.09;;;2.36;100.00
76124;BME280;65173;48.066;20.976;2023-04-08T00:37:36;100789.09;;;2.40;100.00
76124;BME280;65173;48.066;20.976;2023-04-08T00:40:40;100791.47;;;2.41;100.00
76124;BME280;65173;48.066;20.976;2023-04-08T00:43:43;100786.03;;;2.48;100.00
76124;BME280;65173;48.066;20.976;2023-04-08T00:46:46;100790.69;;;2.41;100.00
76124;BME280;65173;48.066;20.976;2023-04-08T00:49:50;100786.16;;;2.36;100.00
76124;BME280;65173;48.066;20.976;2023-04-08T00:52:53;100782.72;;;2.36;100.00
76124;BME280;65173;48.066;20.976;2023-04-08T00:55:56;100781.19;;;2.40;100.00
76124;BME280;65173;48.066;20.976;2023-04-08T00:59:00;100776.56;;;2.47;100.00
76124;BME280;65173;48.066;20.976;2023-04-08T01:02:25;100784.44;;;2.47;100.00
76124;BME280;65173;48.066;20.976;2023-04-08T01:08:49;100781.84;;;2.52;100.00
76124;BME280;65173;48.066;20.976;2023-04-08T01:11:55;100786.59;;;2.50;100.00
76124;BME280;65173;48.066;20.976;2023-04-08T01:15:10;100793.94;;;2.48;100.00
76124;BME280;65173;48.066;20.976;2023-04-08T01:18:14;100793.41;;;2.51;100.00
76124;BME280;65173;48.066;20.976;2023-04-08T01:21:19;100784.78;;;2.56;100.00
76124;BME280;65173;48.066;20.976;2023-04-08T01:24:29;100785.00;;;2.49;100.00
76124;BME280;65173;48.066;20.976;2023-04-08T01:27:34;100783.66;;;2.47;100.00
76124;BME280;65173;48.066;20.976;2023-04-08T01:30:38;100785.78;;;2.50;100.00
76124;BME280;65173;48.066;20.976;2023-04-08T01:33:42;100790.00;;;2.51;100.00
76124;BME280;65173;48.066;20.976;2023-04-08T01:36:47;100783.97;;;2.50;100.00
76124;BME280;65173;48.066;20.976;2023-04-08T01:39:51;100790.03;;;2.56;100.00
76124;BME280;65173;48.066;20.976;2023-04-08T01:42:55;100790.53;;;2.53;100.00
76124;BME280;65173;48.066;20.976;2023-04-08T01:45:59;100795.00;;;2.52;100.00
76124;BME280;65173;48.066;20.976;2023-04-08T01:49:03;100790.03;;;2.56;100.00
76124;BME280;65173;48.066;20.976;2023-04-08T01:52:10;100787.66;;;2.54;100.00
76124;BME280;65173;48.066;20.976;2023-04-08T01:55:14;100785.09;;;2.59;100.00
76124;BME280;65173;48.066;20.976;2023-04-08T01:58:20;100788.22;;;2.56;100.00
76124;BME280;65173;48.066;20.976;2023-04-08T02:01:24;100790.00;;;2.51;100.00
76124;BME280;65173;48.066;20.976;2023-04-08T02:04:28;100791.88;;;2.55;100.00
76124;BME280;65173;48.066;20.976;2023-04-08T02:07:32;100794.03;;;2.58;100.00
76124;BME280;65173;48.066;20.976;2023-04-08T02:10:36;100802.16;;;2.57;100.00
76124;BME280;65173;48.066;20.976;2023-04-08T02:13:39;100793.47;;;2.56;100.00
76124;BME280;65173;48.066;20.976;2023-04-08T02:16:55;100800.16;;;2.64;100.00
76124;BME280;65173;48.066;20.976;2023-04-08T02:20:05;100800.88;;;2.59;100.00
76124;BME280;65173;48.066;20.976;2023-04-08T02:26:15;100799.38;;;2.41;100.00
76124;BME280;65173;48.066;20.976;2023-04-08T02:29:19;100796.00;;;2.46;100.00
76124;BME280;65173;48.066;20.976;2023-04-08T02:32:22;100798.66;;;2.51;100.00
76124;BME280;65173;48.066;20.976;2023-04-08T02:35:26;100795.28;;;2.51;100.00
76124;BME280;65173;48.066;20.976;2023-04-08T02:38:30;100794.19;;;2.52;100.00
76124;BME280;65173;48.066;20.976;2023-04-08T02:41:33;100791.28;;;2.48;100.00
76124;BME280;65173;48.066;20.976;2023-04-08T02:44:36;100791.53;;;2.47;100.00
76124;BME280;65173;48.066;20.976;2023-04-08T02:47:38;100793.72;;;2.55;100.00
76124;BME280;65173;48.066;20.976;2023-04-08T02:50:42;100794.34;;;2.40;100.00
76124;BME280;65173;48.066;20.976;2023-04-08T02:53:44;100795.16;;;2.40;100.00
76124;BME280;65173;48.066;20.976;2023-04-08T02:56:47;100793.00;;;2.37;100.00
76124;BME280;65173;48.066;20.976;2023-04-08T02:59:50;100790.25;;;2.27;100.00
76124;BME280;65173;48.066;20.976;2023-04-08T03:02:53;100791.88;;;2.33;100.00
76124;BME280;65173;48.066;20.976;2023-04-08T03:05:56;100791.78;;;2.23;100.00
76124;BME280;65173;48.066;20.976;2023-04-08T03:09:00;100786.47;;;2.18;100.00
76124;BME280;65173;48.066;20.976;2023-04-08T03:12:02;100796.38;;;2.33;100.00
76124;BME280;65173;48.066;20.976;2023-04-08T03:15:05;100799.44;;;2.25;100.00
76124;BME280;65173;48.066;20.976;2023-04-08T03:18:08;100794.72;;;2.27;100.00
76124;BME280;65173;48.066;20.976;2023-04-08T03:21:12;100797.28;;;2.22;100.00
76124;BME280;65173;48.066;20.976;2023-04-08T03:24:14;100804.44;;;2.26;100.00
76124;BME280;65173;48.066;20.976;2023-04-08T03:27:17;100791.00;;;2.23;100.00
76124;BME280;65173;48.066;20.976;2023-04-08T03:30:20;100802.53;;;2.22;100.00
76124;BME280;65173;48.066;20.976;2023-04-08T03:33:23;100802.72;;;2.15;100.00
76124;BME280;65173;48.066;20.976;2023-04-08T03:36:26;100815.69;;;2.22;100.00
76124;BME280;65173;48.066;20.976;2023-04-08T03:39:29;100812.19;;;2.16;100.00
76124;BME280;65173;48.066;20.976;2023-04-08T03:42:33;100817.41;;;2.11;100.00
76124;BME280;65173;48.066;20.976;2023-04-08T03:45:36;100818.69;;;2.08;100.00
76124;BME280;65173;48.066;20.976;2023-04-08T03:48:39;100823.16;;;2.08;100.00
76124;BME280;65173;48.066;20.976;2023-04-08T03:51:46;100819.34;;;1.99;100.00
76124;BME280;65173;48.066;20.976;2023-04-08T03:54:49;100823.75;;;1.93;100.00
76124;BME280;65173;48.066;20.976;2023-04-08T03:57:52;100833.06;;;1.84;100.00
76124;BME280;65173;48.066;20.976;2023-04-08T04:00:55;100826.16;;;1.78;100.00
76124;BME280;65173;48.066;20.976;2023-04-08T04:03:58;100833.78;;;1.80;100.00
76124;BME280;65173;48.066;20.976;2023-04-08T04:07:01;100833.31;;;1.83;100.00
76124;BME280;65173;48.066;20.976;2023-04-08T04:10:04;100842.88;;;1.89;100.00
76124;BME280;65173;48.066;20.976;2023-04-08T04:13:09;100835.63;;;1.79;100.00
76124;BME280;65173;48.066;20.976;2023-04-08T04:16:12;100839.59;;;1.82;100.00
76124;BME280;65173;48.066;20.976;2023-04-08T04:19:15;100848.06;;;1.67;100.00
76124;BME280;65173;48.066;20.976;2023-04-08T04:22:19;100852.84;;;1.70;100.00
76124;BME280;65173;48.066;20.976;2023-04-08T04:25:23;100859.75;;;1.76;100.00
76124;BME280;65173;48.066;20.976;2023-04-08T04:28:26;100858.53;;;1.84;100.00
76124;BME280;65173;48.066;20.976;2023-04-08T04:31:29;100873.03;;;1.86;100.00
76124;BME280;65173;48.066;20.976;2023-04-08T04:34:32;100862.06;;;1.89;100.00
76124;BME280;65173;48.066;20.976;2023-04-08T04:37:35;100865.56;;;1.95;100.00
76124;BME280;65173;48.066;20.976;2023-04-08T04:40:40;100869.91;;;2.06;100.00
76124;BME280;65173;48.066;20.976;2023-04-08T04:43:43;100863.31;;;2.03;100.00
76124;BME280;65173;48.066;20.976;2023-04-08T04:46:46;100870.47;;;2.08;100.00
76124;BME280;65173;48.066;20.976;2023-04-08T04:49:49;100872.44;;;2.18;100.00
76124;BME280;65173;48.066;20.976;2023-04-08T04:52:51;100877.53;;;2.24;100.00
76124;BME280;65173;48.066;20.976;2023-04-08T04:55:54;100879.59;;;2.22;100.00
76124;BME280;65173;48.066;20.976;2023-04-08T04:58:57;100887.25;;;2.24;100.00
76124;BME280;65173;48.066;20.976;2023-04-08T05:02:00;100887.13;;;2.35;100.00
76124;BME280;65173;48.066;20.976;2023-04-08T05:05:03;100889.84;;;2.40;100.00
76124;BME280;65173;48.066;20.976;2023-04-08T05:08:06;100888.31;;;2.44;100.00
76124;BME280;65173;48.066;20.976;2023-04-08T05:11:10;100889.78;;;2.57;100.00
76124;BME280;65173;48.066;20.976;2023-04-08T05:14:13;100895.47;;;2.71;100.00
76124;BME280;65173;48.066;20.976;2023-04-08T05:17:16;100895.78;;;2.74;100.00
76124;BME280;65173;48.066;20.976;2023-04-08T05:20:19;100892.19;;;2.81;100.00
76124;BME280;65173;48.066;20.976;2023-04-08T05:23:23;100903.19;;;2.77;100.00
76124;BME280;65173;48.066;20.976;2023-04-08T05:26:25;100896.97;;;2.84;100.00
76124;BME280;65173;48.066;20.976;2023-04-08T05:29:28;100901.53;;;2.93;100.00
76124;BME280;65173;48.066;20.976;2023-04-08T05:32:31;100906.78;;;2.93;100.00
76124;BME280;65173;48.066;20.976;2023-04-08T05:35:34;100906.63;;;3.00;100.00
76124;BME280;65173;48.066;20.976;2023-04-08T05:38:38;100906.72;;;3.10;100.00
76124;BME280;65173;48.066;20.976;2023-04-08T05:41:40;100911.50;;;3.13;100.00
76124;BME280;65173;48.066;20.976;2023-04-08T05:44:43;100908.91;;;3.18;100.00
76124;BME280;65173;48.066;20.976;2023-04-08T05:47:47;100912.13;;;3.25;100.00
76124;BME280;65173;48.066;20.976;2023-04-08T05:50:49;100907.00;;;3.40;100.00
76124;BME280;65173;48.066;20.976;2023-04-08T05:53:53;100902.72;;;3.61;99.86
76124;BME280;65173;48.066;20.976;2023-04-08T05:56:56;100907.06;;;3.77;99.44
76124;BME280;65173;48.066;20.976;2023-04-08T05:59:59;100915.63;;;3.95;99.36
76124;BME280;65173;48.066;20.976;2023-04-08T06:03:02;100912.88;;;4.11;100.00
76124;BME280;65173;48.066;20.976;2023-04-08T06:06:09;100914.25;;;4.24;98.11
76124;BME280;65173;48.066;20.976;2023-04-08T06:09:13;100924.59;;;4.36;95.98
76124;BME280;65173;48.066;20.976;2023-04-08T06:12:16;100920.63;;;4.33;94.29
76124;BME280;65173;48.066;20.976;2023-04-08T06:15:19;100922.22;;;4.34;92.86
76124;BME280;65173;48.066;20.976;2023-04-08T06:18:22;100921.78;;;4.47;94.35
76124;BME280;65173;48.066;20.976;2023-04-08T06:21:25;100921.78;;;4.52;93.92
76124;BME280;65173;48.066;20.976;2023-04-08T06:24:28;100922.88;;;4.57;92.17
76124;BME280;65173;48.066;20.976;2023-04-08T06:27:31;100924.31;;;4.79;94.65
76124;BME280;65173;48.066;20.976;2023-04-08T06:30:34;100925.88;;;4.75;92.53
76124;BME280;65173;48.066;20.976;2023-04-08T06:33:37;100917.72;;;4.87;90.03
76124;BME280;65173;48.066;20.976;2023-04-08T06:36:40;100921.19;;;4.98;91.68
76124;BME280;65173;48.066;20.976;2023-04-08T06:39:43;100920.41;;;5.07;92.62
76124;BME280;65173;48.066;20.976;2023-04-08T06:42:45;100933.94;;;5.16;89.32
76124;BME280;65173;48.066;20.976;2023-04-08T06:46:02;100922.84;;;5.19;88.37
76124;BME280;65173;48.066;20.976;2023-04-08T06:49:05;100927.38;;;5.34;89.80
76124;BME280;65173;48.066;20.976;2023-04-08T06:52:08;100935.81;;;5.41;87.28
76124;BME280;65173;48.066;20.976;2023-04-08T06:55:11;100937.69;;;5.50;87.23
76124;BME280;65173;48.066;20.976;2023-04-08T06:58:13;100943.22;;;5.44;87.55
76124;BME280;65173;48.066;20.976;2023-04-08T07:01:16;100942.47;;;5.53;86.63
76124;BME280;65173;48.066;20.976;2023-04-08T07:04:19;100941.41;;;5.70;85.86
76124;BME280;65173;48.066;20.976;2023-04-08T07:07:22;100940.59;;;5.59;84.97
76124;BME280;65173;48.066;20.976;2023-04-08T07:10:27;100941.94;;;5.77;85.37
76124;BME280;65173;48.066;20.976;2023-04-08T07:13:30;100944.06;;;5.70;85.60
76124;BME280;65173;48.066;20.976;2023-04-08T07:16:33;100940.38;;;5.96;85.06
76124;BME280;65173;48.066;20.976;2023-04-08T07:19:35;100941.97;;;5.92;84.14
76124;BME280;65173;48.066;20.976;2023-04-08T07:22:39;100943.00;;;6.16;86.14
76124;BME280;65173;48.066;20.976;2023-04-08T07:25:42;100947.47;;;6.31;81.97
76124;BME280;65173;48.066;20.976;2023-04-08T07:28:45;100946.41;;;6.37;81.18
76124;BME280;65173;48.066;20.976;2023-04-08T07:31:48;100948.75;;;6.49;80.81
76124;BME280;65173;48.066;20.976;2023-04-08T07:34:51;100952.72;;;6.56;84.27
76124;BME280;65173;48.066;20.976;2023-04-08T07:37:54;100949.03;;;6.47;81.46
76124;BME280;65173;48.066;20.976;2023-04-08T07:40:57;100953.88;;;6.05;81.92
76124;BME280;65173;48.066;20.976;2023-04-08T07:43:59;100968.44;;;6.02;84.42
76124;BME280;65173;48.066;20.976;2023-04-08T07:47:03;100962.56;;;5.70;83.70
76124;BME280;65173;48.066;20.976;2023-04-08T07:50:06;100964.41;;;5.74;82.67
76124;BME280;65173;48.066;20.976;2023-04-08T07:53:09;100970.53;;;6.10;82.98
76124;BME280;65173;48.066;20.976;2023-04-08T07:56:14;100963.66;;;6.19;84.94
76124;BME280;65173;48.066;20.976;2023-04-08T07:59:17;100965.75;;;6.27;81.42
76124;BME280;65173;48.066;20.976;2023-04-08T08:02:20;100969.47;;;6.21;81.34
76124;BME280;65173;48.066;20.976;2023-04-08T08:05:22;100969.72;;;6.30;81.11
76124;BME280;65173;48.066;20.976;2023-04-08T08:08:25;100968.91;;;6.35;79.94
76124;BME280;65173;48.066;20.976;2023-04-08T08:11:28;100967.09;;;6.25;83.19
76124;BME280;65173;48.066;20.976;2023-04-08T08:14:31;100964.19;;;6.11;79.07
76124;BME280;65173;48.066;20.976;2023-04-08T08:17:33;100974.75;;;6.42;81.46
76124;BME280;65173;48.066;20.976;2023-04-08T08:20:40;100972.06;;;6.62;82.63
76124;BME280;65173;48.066;20.976;2023-04-08T08:23:42;100968.63;;;6.46;79.48
76124;BME280;65173;48.066;20.976;2023-04-08T08:26:45;100973.16;;;6.41;81.93
76124;BME280;65173;48.066;20.976;2023-04-08T08:29:50;100965.97;;;6.56;80.61
76124;BME280;65173;48.066;20.976;2023-04-08T08:32:54;100971.50;;;6.65;82.71
76124;BME280;65173;48.066;20.976;2023-04-08T08:35:57;100972.06;;;6.57;80.48
76124;BME280;65173;48.066;20.976;2023-04-08T08:39:01;100976.84;;;6.55;79.36
76124;BME280;65173;48.066;20.976;2023-04-08T08:42:04;100971.69;;;6.89;80.95
76124;BME280;65173;48.066;20.976;2023-04-08T08:45:07;100973.00;;;6.96;78.61
76124;BME280;65173;48.066;20.976;2023-04-08T08:48:10;100969.19;;;6.43;78.60
76124;BME280;65173;48.066;20.976;2023-04-08T08:51:13;100975.72;;;6.71;81.50
76124;BME280;65173;48.066;20.976;2023-04-08T08:54:15;100983.13;;;6.74;80.27
76124;BME280;65173;48.066;20.976;2023-04-08T08:57:19;100977.09;;;6.58;78.30
76124;BME280;65173;48.066;20.976;2023-04-08T09:00:40;100975.50;;;6.52;78.77
76124;BME280;65173;48.066;20.976;2023-04-08T09:03:44;100983.41;;;6.78;80.94
76124;BME280;65173;48.066;20.976;2023-04-08T09:07:08;100988.38;;;6.89;79.35
76124;BME280;65173;48.066;20.976;2023-04-08T09:10:11;100977.72;;;7.00;78.09
76124;BME280;65173;48.066;20.976;2023-04-08T09:13:15;100990.59;;;7.31;80.00
76124;BME280;65173;48.066;20.976;2023-04-08T09:16:18;100994.78;;;7.38;78.17
76124;BME280;65173;48.066;20.976;2023-04-08T09:19:21;100988.03;;;7.11;79.07
76124;BME280;65173;48.066;20.976;2023-04-08T09:22:24;101000.31;;;7.46;77.71
76124;BME280;65173;48.066;20.976;2023-04-08T09:25:31;100998.84;;;8.66;75.20
76124;BME280;65173;48.066;20.976;2023-04-08T09:28:35;100997.41;;;8.97;71.21
76124;BME280;65173;48.066;20.976;2023-04-08T09:31:38;100991.91;;;9.88;69.69
76124;BME280;65173;48.066;20.976;2023-04-08T09:34:44;101002.84;;;9.86;68.33
76124;BME280;65173;48.066;20.976;2023-04-08T09:37:47;101001.38;;;9.80;70.20
76124;BME280;65173;48.066;20.976;2023-04-08T09:40:51;100997.75;;;9.15;65.85
76124;BME280;65173;48.066;20.976;2023-04-08T09:43:55;100996.56;;;8.78;69.45
76124;BME280;65173;48.066;20.976;2023-04-08T09:47:12;100996.38;;;8.46;70.21
76124;BME280;65173;48.066;20.976;2023-04-08T09:50:23;100987.41;;;8.42;70.40
76124;BME280;65173;48.066;20.976;2023-04-08T09:53:33;100995.28;;;8.99;68.45
76124;BME280;65173;48.066;20.976;2023-04-08T09:56:43;100990.66;;;9.29;67.60
76124;BME280;65173;48.066;20.976;2023-04-08T09:59:56;100984.88;;;9.97;66.00
76124;BME280;65173;48.066;20.976;2023-04-08T10:03:09;100977.34;;;9.85;63.08
76124;BME280;65173;48.066;20.976;2023-04-08T10:06:14;100979.28;;;10.58;64.43
76124;BME280;65173;48.066;20.976;2023-04-08T10:09:17;100987.75;;;9.07;62.19
76124;BME280;65173;48.066;20.976;2023-04-08T10:12:20;100993.53;;;8.90;66.08
76124;BME280;65173;48.066;20.976;2023-04-08T10:15:32;100997.59;;;8.82;65.88
76124;BME280;65173;48.066;20.976;2023-04-08T10:18:35;100984.06;;;9.96;62.05
76124;BME280;65173;48.066;20.976;2023-04-08T10:21:40;100986.47;;;11.98;59.31
76124;BME280;65173;48.066;20.976;2023-04-08T10:31:21;100989.88;;;10.91;60.50
76124;BME280;65173;48.066;20.976;2023-04-08T10:34:25;100984.25;;;11.42;56.63
76124;BME280;65173;48.066;20.976;2023-04-08T10:37:29;100995.31;;;11.71;59.82
76124;BME280;65173;48.066;20.976;2023-04-08T10:40:35;100987.63;;;11.34;61.32
76124;BME280;65173;48.066;20.976;2023-04-08T10:43:45;100983.59;;;10.27;60.91
76124;BME280;65173;48.066;20.976;2023-04-08T10:46:49;100987.06;;;9.76;61.95
76124;BME280;65173;48.066;20.976;2023-04-08T10:49:52;100989.72;;;9.20;65.84
76124;BME280;65173;48.066;20.976;2023-04-08T10:52:55;100997.50;;;8.92;65.62
76124;BME280;65173;48.066;20.976;2023-04-08T10:59:08;100983.25;;;9.26;68.56
76124;BME280;65173;48.066;20.976;2023-04-08T11:02:13;100990.03;;;8.94;67.21
76124;BME280;65173;48.066;20.976;2023-04-08T11:05:16;100983.84;;;8.99;67.11
76124;BME280;65173;48.066;20.976;2023-04-08T11:08:26;100989.41;;;8.79;67.39
76124;BME280;65173;48.066;20.976;2023-04-08T11:11:30;100985.94;;;8.78;67.17
76124;BME280;65173;48.066;20.976;2023-04-08T11:14:34;100983.56;;;9.00;67.17
76124;BME280;65173;48.066;20.976;2023-04-08T11:17:36;100986.97;;;8.58;67.62
76124;BME280;65173;48.066;20.976;2023-04-08T11:20:39;100988.59;;;8.78;66.15
76124;BME280;65173;48.066;20.976;2023-04-08T11:23:42;100986.69;;;8.60;67.71
76124;BME280;65173;48.066;20.976;2023-04-08T11:26:45;100982.81;;;8.76;67.84
76124;BME280;65173;48.066;20.976;2023-04-08T11:29:48;100986.13;;;8.63;68.04
76124;BME280;65173;48.066;20.976;2023-04-08T11:32:50;100984.13;;;8.21;69.24
76124;BME280;65173;48.066;20.976;2023-04-08T11:35:54;100974.81;;;7.89;70.50
76124;BME280;65173;48.066;20.976;2023-04-08T11:38:56;100980.81;;;8.05;68.83
76124;BME280;65173;48.066;20.976;2023-04-08T11:41:59;100976.00;;;8.07;70.34
76124;BME280;65173;48.066;20.976;2023-04-08T11:45:13;100973.81;;;7.85;71.80
76124;BME280;65173;48.066;20.976;2023-04-08T11:48:17;100972.03;;;7.71;71.89
76124;BME280;65173;48.066;20.976;2023-04-08T11:51:20;100981.13;;;7.59;71.25
76124;BME280;65173;48.066;20.976;2023-04-08T11:54:28;100977.97;;;7.57;72.09
76124;BME280;65173;48.066;20.976;2023-04-08T11:57:31;100971.56;;;7.63;73.47
76124;BME280;65173;48.066;20.976;2023-04-08T12:00:34;100972.94;;;7.56;74.19
76124;BME280;65173;48.066;20.976;2023-04-08T12:03:41;100975.38;;;7.52;74.44
76124;BME280;65173;48.066;20.976;2023-04-08T12:06:55;100969.47;;;7.60;73.58
76124;BME280;65173;48.066;20.976;2023-04-08T12:10:00;100970.22;;;7.66;73.66
76124;BME280;65173;48.066;20.976;2023-04-08T12:13:04;100968.47;;;7.51;71.81
76124;BME280;65173;48.066;20.976;2023-04-08T12:16:06;100961.09;;;7.38;73.22
76124;BME280;65173;48.066;20.976;2023-04-08T12:19:09;100969.75;;;7.54;73.20
76124;BME280;65173;48.066;20.976;2023-04-08T12:22:12;100970.06;;;7.52;71.76
76124;BME280;65173;48.066;20.976;2023-04-08T12:25:15;100967.31;;;7.62;74.67
76124;BME280;65173;48.066;20.976;2023-04-08T12:28:18;100967.22;;;7.78;74.45
76124;BME280;65173;48.066;20.976;2023-04-08T12:31:21;100973.25;;;8.17;74.80
76124;BME280;65173;48.066;20.976;2023-04-08T12:34:24;100966.25;;;8.26;72.70
76124;BME280;65173;48.066;20.976;2023-04-08T12:37:27;100966.25;;;8.26;72.01
76124;BME280;65173;48.066;20.976;2023-04-08T12:40:31;100970.50;;;8.27;68.10
76124;BME280;65173;48.066;20.976;2023-04-08T12:43:34;100973.19;;;8.56;69.07
76124;BME280;65173;48.066;20.976;2023-04-08T12:46:38;100964.88;;;8.39;69.00
76124;BME280;65173;48.066;20.976;2023-04-08T12:49:40;100967.78;;;8.61;71.00
76124;BME280;65173;48.066;20.976;2023-04-08T12:52:51;100967.69;;;8.48;69.43
76124;BME280;65173;48.066;20.976;2023-04-08T12:55:54;100974.38;;;8.69;69.60
76124;BME280;65173;48.066;20.976;2023-04-08T12:58:59;100967.50;;;8.63;68.71
76124;BME280;65173;48.066;20.976;2023-04-08T13:02:02;100964.91;;;9.05;69.34
76124;BME280;65173;48.066;20.976;2023-04-08T13:05:05;100972.94;;;9.00;65.82
76124;BME280;65173;48.066;20.976;2023-04-08T13:08:08;100970.50;;;9.04;68.10
76124;BME280;65173;48.066;20.976;2023-04-08T13:11:11;100972.09;;;9.24;69.65
76124;BME280;65173;48.066;20.976;2023-04-08T13:14:14;100964.47;;;9.17;65.64
76124;BME280;65173;48.066;20.976;2023-04-08T13:17:17;100954.84;;;9.21;66.28
76124;BME280;65173;48.066;20.976;2023-04-08T13:20:20;100960.94;;;9.03;65.46
76124;BME280;65173;48.066;20.976;2023-04-08T13:23:27;100953.91;;;8.93;69.27
76124;BME280;65173;48.066;20.976;2023-04-08T13:26:30;100967.28;;;8.83;68.20
76124;BME280;65173;48.066;20.976;2023-04-08T13:29:33;100954.03;;;8.59;69.21
76124;BME280;65173;48.066;20.976;2023-04-08T13:32:35;100960.63;;;8.38;68.11
76124;BME280;65173;48.066;20.976;2023-04-08T13:35:38;100958.41;;;8.16;68.98
76124;BME280;65173;48.066;20.976;2023-04-08T13:38:40;100954.16;;;8.15;70.78
76124;BME280;65173;48.066;20.976;2023-04-08T13:41:43;100958.44;;;8.11;69.92
76124;BME280;65173;48.066;20.976;2023-04-08T13:44:46;100953.56;;;7.55;72.64
76124;BME280;65173;48.066;20.976;2023-04-08T13:47:49;100955.13;;;7.61;73.61
76124;BME280;65173;48.066;20.976;2023-04-08T13:50:51;100951.16;;;7.59;77.26
76124;BME280;65173;48.066;20.976;2023-04-08T13:53:54;100954.16;;;7.52;76.38
76124;BME280;65173;48.066;20.976;2023-04-08T13:56:57;100964.72;;;7.08;75.50
76124;BME280;65173;48.066;20.976;2023-04-08T14:00:00;100967.19;;;6.94;78.68
76124;BME280;65173;48.066;20.976;2023-04-08T14:03:04;100957.94;;;6.82;77.36
76124;BME280;65173;48.066;20.976;2023-04-08T14:06:07;100963.75;;;6.84;81.29
76124;BME280;65173;48.066;20.976;2023-04-08T14:09:10;100961.09;;;6.89;79.36
76124;BME280;65173;48.066;20.976;2023-04-08T14:12:13;100968.25;;;6.88;79.04
76124;BME280;65173;48.066;20.976;2023-04-08T14:15:15;100957.91;;;6.97;79.13
76124;BME280;65173;48.066;20.976;2023-04-08T14:18:18;100959.78;;;6.86;79.27
76124;BME280;65173;48.066;20.976;2023-04-08T14:21:21;100958.44;;;6.84;82.92
76124;BME280;65173;48.066;20.976;2023-04-08T14:24:24;100953.78;;;6.60;83.53
76124;BME280;65173;48.066;20.976;2023-04-08T14:27:26;100955.66;;;6.55;82.81
76124;BME280;65173;48.066;20.976;2023-04-08T14:30:31;100961.16;;;6.63;82.58
76124;BME280;65173;48.066;20.976;2023-04-08T14:33:34;100966.94;;;6.81;85.07
76124;BME280;65173;48.066;20.976;2023-04-08T14:36:37;100954.00;;;6.79;86.02
76124;BME280;65173;48.066;20.976;2023-04-08T14:39:40;100962.44;;;6.86;86.50
76124;BME280;65173;48.066;20.976;2023-04-08T14:42:43;100957.44;;;6.80;86.71
76124;BME280;65173;48.066;20.976;2023-04-08T14:45:48;100962.47;;;6.71;89.20
76124;BME280;65173;48.066;20.976;2023-04-08T14:48:51;100960.41;;;6.48;89.97
76124;BME280;65173;48.066;20.976;2023-04-08T14:51:54;100965.97;;;6.51;89.97
76124;BME280;65173;48.066;20.976;2023-04-08T14:54:57;100961.25;;;6.38;91.12
76124;BME280;65173;48.066;20.976;2023-04-08T14:58:00;100961.25;;;6.33;91.51
76124;BME280;65173;48.066;20.976;2023-04-08T15:01:03;100966.53;;;6.38;91.13
76124;BME280;65173;48.066;20.976;2023-04-08T15:04:06;100967.88;;;6.41;90.08
76124;BME280;65173;48.066;20.976;2023-04-08T15:07:09;100969.19;;;6.28;92.21
76124;BME280;65173;48.066;20.976;2023-04-08T15:10:12;100969.22;;;6.13;92.05
76124;BME280;65173;48.066;20.976;2023-04-08T15:13:15;100970.00;;;6.18;93.10
76124;BME280;65173;48.066;20.976;2023-04-08T15:16:18;100974.50;;;6.23;95.75
76124;BME280;65173;48.066;20.976;2023-04-08T15:19:21;100975.81;;;6.15;95.27
76124;BME280;65173;48.066;20.976;2023-04-08T15:22:24;100974.78;;;6.21;95.25
76124;BME280;65173;48.066;20.976;2023-04-08T15:25:27;100977.16;;;6.13;94.01
76124;BME280;65173;48.066;20.976;2023-04-08T15:28:30;100970.53;;;6.20;93.81
76124;BME280;65173;48.066;20.976;2023-04-08T15:31:33;100971.06;;;6.22;93.35
76124;BME280;65173;48.066;20.976;2023-04-08T15:34:36;100966.84;;;6.21;93.25
76124;BME280;65173;48.066;20.976;2023-04-08T15:37:39;100969.47;;;6.16;94.63
76124;BME280;65173;48.066;20.976;2023-04-08T15:40:42;100966.28;;;6.09;94.82
76124;BME280;65173;48.066;20.976;2023-04-08T15:43:48;100971.88;;;5.98;94.87
76124;BME280;65173;48.066;20.976;2023-04-08T15:46:51;100972.66;;;5.93;95.10
76124;BME280;65173;48.066;20.976;2023-04-08T15:49:55;100976.63;;;6.01;95.89
76124;BME280;65173;48.066;20.976;2023-04-08T15:52:57;100965.25;;;6.00;95.44
76124;BME280;65173;48.066;20.976;2023-04-08T15:56:00;100979.78;;;5.92;94.55
76124;BME280;65173;48.066;20.976;2023-04-08T15:59:05;100969.47;;;5.96;93.68
76124;BME280;65173;48.066;20.976;2023-04-08T16:02:08;100982.72;;;5.96;94.35
76124;BME280;65173;48.066;20.976;2023-04-08T16:05:11;100983.22;;;5.93;94.57
76124;BME280;65173;48.066;20.976;2023-04-08T16:08:14;100975.56;;;5.91;94.77
76124;BME280;65173;48.066;20.976;2023-04-08T16:11:17;100984.28;;;5.92;94.97